sensor_id;sensor_type;location;lat;lon;timestamp;P1;durP1;ratioP1;P2;durP2;ratioP2
2680;SDS011;1350;42.134;24.708;2022-10-22T00:00:39;30.50;;;23.88;;
2680;SDS011;1350;42.134;24.708;2022-10-22T00:03:06;35.42;;;24.98;;
2680;SDS011;1350;42.134;24.708;2022-10-22T00:05:32;37.35;;;25.90;;
2680;SDS011;1350;42.134;24.708;2022-10-22T00:07:59;32.10;;;24.77;;
2680;SDS011;1350;42.134;24.708;2022-10-22T00:10:26;38.47;;;25.67;;
2680;SDS011;1350;42.134;24.708;2022-10-22T00:12:54;39.38;;;23.98;;
2680;SDS011;1350;42.134;24.708;2022-10-22T00:15:21;34.47;;;24.35;;
2680;SDS011;1350;42.134;24.708;2022-10-22T00:17:48;38.95;;;26.92;;
2680;SDS011;1350;42.134;24.708;2022-10-22T00:20:15;33.95;;;24.20;;
2680;SDS011;1350;42.134;24.708;2022-10-22T00:22:41;34.47;;;24.08;;
2680;SDS011;1350;42.134;24.708;2022-10-22T00:25:08;32.83;;;24.52;;
2680;SDS011;1350;42.134;24.708;2022-10-22T00:27:35;36.75;;;26.50;;
2680;SDS011;1350;42.134;24.708;2022-10-22T00:30:03;41.42;;;27.60;;
2680;SDS011;1350;42.134;24.708;2022-10-22T00:32:30;38.00;;;26.40;;
2680;SDS011;1350;42.134;24.708;2022-10-22T00:34:57;36.00;;;25.50;;
2680;SDS011;1350;42.134;24.708;2022-10-22T00:37:24;35.22;;;24.10;;
2680;SDS011;1350;42.134;24.708;2022-10-22T00:39:51;38.42;;;25.05;;
2680;SDS011;1350;42.134;24.708;2022-10-22T00:42:19;37.20;;;24.02;;
2680;SDS011;1350;42.134;24.708;2022-10-22T00:44:59;37.00;;;25.80;;
2680;SDS011;1350;42.134;24.708;2022-10-22T00:47:31;35.55;;;25.83;;
2680;SDS011;1350;42.134;24.708;2022-10-22T00:50:01;37.20;;;23.77;;
2680;SDS011;1350;42.134;24.708;2022-10-22T00:52:30;36.25;;;24.23;;
2680;SDS011;1350;42.134;24.708;2022-10-22T00:54:57;36.30;;;25.83;;
2680;SDS011;1350;42.134;24.708;2022-10-22T00:57:26;36.60;;;26.08;;
2680;SDS011;1350;42.134;24.708;2022-10-22T00:59:53;32.90;;;23.08;;
2680;SDS011;1350;42.134;24.708;2022-10-22T01:02:22;33.78;;;24.80;;
2680;SDS011;1350;42.134;24.708;2022-10-22T01:04:50;35.58;;;24.40;;
2680;SDS011;1350;42.134;24.708;2022-10-22T01:07:18;32.30;;;26.20;;
2680;SDS011;1350;42.134;24.708;2022-10-22T01:09:49;33.95;;;24.40;;
2680;SDS011;1350;42.134;24.708;2022-10-22T01:12:27;33.83;;;24.92;;
2680;SDS011;1350;42.134;24.708;2022-10-22T01:15:06;37.63;;;23.98;;
2680;SDS011;1350;42.134;24.708;2022-10-22T01:17:41;33.63;;;22.60;;
2680;SDS011;1350;42.134;24.708;2022-10-22T01:20:21;31.20;;;23.65;;
2680;SDS011;1350;42.134;24.708;2022-10-22T01:23:16;32.03;;;23.17;;
2680;SDS011;1350;42.134;24.708;2022-10-22T01:25:56;34.92;;;23.88;;
2680;SDS011;1350;42.134;24.708;2022-10-22T01:28:44;27.15;;;21.45;;
2680;SDS011;1350;42.134;24.708;2022-10-22T01:31:21;31.77;;;24.20;;
2680;SDS011;1350;42.134;24.708;2022-10-22T01:33:50;35.58;;;23.27;;
2680;SDS011;1350;42.134;24.708;2022-10-22T01:36:19;31.58;;;23.98;;
2680;SDS011;1350;42.134;24.708;2022-10-22T01:38:47;29.40;;;22.98;;
2680;SDS011;1350;42.134;24.708;2022-10-22T01:41:16;32.33;;;24.35;;
2680;SDS011;1350;42.134;24.708;2022-10-22T01:43:45;32.83;;;24.02;;
2680;SDS011;1350;42.134;24.708;2022-10-22T01:46:11;31.35;;;23.80;;
2680;SDS011;1350;42.134;24.708;2022-10-22T01:48:44;36.05;;;24.35;;
2680;SDS011;1350;42.134;24.708;2022-10-22T01:51:34;33.63;;;22.85;;
2680;SDS011;1350;42.134;24.708;2022-10-22T01:54:13;30.83;;;21.77;;
2680;SDS011;1350;42.134;24.708;2022-10-22T01:56:52;35.47;;;24.27;;
2680;SDS011;1350;42.134;24.708;2022-10-22T01:59:29;28.65;;;22.48;;
2680;SDS011;1350;42.134;24.708;2022-10-22T02:02:03;31.08;;;23.35;;
2680;SDS011;1350;42.134;24.708;2022-10-22T02:04:38;30.95;;;22.77;;
2680;SDS011;1350;42.134;24.708;2022-10-22T02:07:10;34.78;;;23.73;;
2680;SDS011;1350;42.134;24.708;2022-10-22T02:09:40;29.95;;;23.58;;
2680;SDS011;1350;42.134;24.708;2022-10-22T02:12:08;31.25;;;23.63;;
2680;SDS011;1350;42.134;24.708;2022-10-22T02:14:38;32.38;;;24.80;;
2680;SDS011;1350;42.134;24.708;2022-10-22T02:17:08;34.50;;;23.92;;
2680;SDS011;1350;42.134;24.708;2022-10-22T02:19:40;36.78;;;26.25;;
2680;SDS011;1350;42.134;24.708;2022-10-22T02:22:12;38.17;;;25.65;;
2680;SDS011;1350;42.134;24.708;2022-10-22T02:24:39;35.33;;;26.20;;
2680;SDS011;1350;42.134;24.708;2022-10-22T02:27:08;41.08;;;25.73;;
2680;SDS011;1350;42.134;24.708;2022-10-22T02:29:42;38.05;;;25.20;;
2680;SDS011;1350;42.134;24.708;2022-10-22T02:32:16;34.38;;;23.38;;
2680;SDS011;1350;42.134;24.708;2022-10-22T02:34:46;36.85;;;27.23;;
2680;SDS011;1350;42.134;24.708;2022-10-22T02:37:15;36.22;;;27.20;;
2680;SDS011;1350;42.134;24.708;2022-10-22T02:39:44;35.65;;;27.42;;
2680;SDS011;1350;42.134;24.708;2022-10-22T02:42:11;32.78;;;22.35;;
2680;SDS011;1350;42.134;24.708;2022-10-22T02:44:38;37.50;;;25.17;;
2680;SDS011;1350;42.134;24.708;2022-10-22T02:47:06;33.90;;;24.73;;
2680;SDS011;1350;42.134;24.708;2022-10-22T02:49:33;31.63;;;23.55;;
2680;SDS011;1350;42.134;24.708;2022-10-22T02:52:00;35.70;;;26.50;;
2680;SDS011;1350;42.134;24.708;2022-10-22T02:54:27;34.75;;;25.52;;
2680;SDS011;1350;42.134;24.708;2022-10-22T02:56:53;33.40;;;23.83;;
2680;SDS011;1350;42.134;24.708;2022-10-22T02:59:20;36.47;;;26.40;;
2680;SDS011;1350;42.134;24.708;2022-10-22T03:01:47;31.98;;;22.90;;
2680;SDS011;1350;42.134;24.708;2022-10-22T03:04:15;42.00;;;23.83;;
2680;SDS011;1350;42.134;24.708;2022-10-22T03:06:42;32.00;;;23.92;;
2680;SDS011;1350;42.134;24.708;2022-10-22T03:09:09;33.72;;;23.60;;
2680;SDS011;1350;42.134;24.708;2022-10-22T03:11:36;33.10;;;22.10;;
2680;SDS011;1350;42.134;24.708;2022-10-22T03:14:03;31.50;;;23.67;;
2680;SDS011;1350;42.134;24.708;2022-10-22T03:16:29;34.55;;;26.15;;
2680;SDS011;1350;42.134;24.708;2022-10-22T03:18:56;33.90;;;25.80;;
2680;SDS011;1350;42.134;24.708;2022-10-22T03:21:26;35.40;;;25.45;;
2680;SDS011;1350;42.134;24.708;2022-10-22T03:23:56;32.53;;;24.80;;
2680;SDS011;1350;42.134;24.708;2022-10-22T03:26:24;42.25;;;25.33;;
2680;SDS011;1350;42.134;24.708;2022-10-22T03:28:52;31.42;;;23.35;;
2680;SDS011;1350;42.134;24.708;2022-10-22T03:31:19;34.13;;;24.35;;
2680;SDS011;1350;42.134;24.708;2022-10-22T03:33:46;29.30;;;22.73;;
2680;SDS011;1350;42.134;24.708;2022-10-22T03:36:13;31.23;;;23.15;;
2680;SDS011;1350;42.134;24.708;2022-10-22T03:38:41;30.70;;;22.80;;
2680;SDS011;1350;42.134;24.708;2022-10-22T03:41:08;32.47;;;25.15;;
2680;SDS011;1350;42.134;24.708;2022-10-22T03:43:35;31.50;;;20.90;;
2680;SDS011;1350;42.134;24.708;2022-10-22T03:46:05;30.08;;;21.60;;
2680;SDS011;1350;42.134;24.708;2022-10-22T03:48:32;28.67;;;22.27;;
2680;SDS011;1350;42.134;24.708;2022-10-22T03:50:58;26.25;;;20.60;;
2680;SDS011;1350;42.134;24.708;2022-10-22T03:53:25;34.58;;;23.13;;
2680;SDS011;1350;42.134;24.708;2022-10-22T03:55:53;31.45;;;23.90;;
2680;SDS011;1350;42.134;24.708;2022-10-22T03:58:20;30.90;;;22.38;;
2680;SDS011;1350;42.134;24.708;2022-10-22T04:00:47;28.05;;;20.45;;
2680;SDS011;1350;42.134;24.708;2022-10-22T04:03:14;34.83;;;23.63;;
2680;SDS011;1350;42.134;24.708;2022-10-22T04:05:40;30.23;;;22.92;;
2680;SDS011;1350;42.134;24.708;2022-10-22T04:08:07;41.58;;;23.10;;
2680;SDS011;1350;42.134;24.708;2022-10-22T04:10:34;37.20;;;22.23;;
2680;SDS011;1350;42.134;24.708;2022-10-22T04:13:02;35.90;;;21.60;;
2680;SDS011;1350;42.134;24.708;2022-10-22T04:15:29;27.70;;;21.38;;
2680;SDS011;1350;42.134;24.708;2022-10-22T04:17:56;27.73;;;23.02;;
2680;SDS011;1350;42.134;24.708;2022-10-22T04:20:23;35.25;;;24.23;;
2680;SDS011;1350;42.134;24.708;2022-10-22T04:22:50;31.85;;;22.30;;
2680;SDS011;1350;42.134;24.708;2022-10-22T04:25:16;32.20;;;23.50;;
2680;SDS011;1350;42.134;24.708;2022-10-22T04:27:43;31.35;;;22.65;;
2680;SDS011;1350;42.134;24.708;2022-10-22T04:30:12;31.08;;;21.85;;
2680;SDS011;1350;42.134;24.708;2022-10-22T04:32:39;28.42;;;21.23;;
2680;SDS011;1350;42.134;24.708;2022-10-22T04:35:06;28.85;;;23.25;;
2680;SDS011;1350;42.134;24.708;2022-10-22T04:37:33;32.42;;;22.58;;
2680;SDS011;1350;42.134;24.708;2022-10-22T04:40:00;26.02;;;20.33;;
2680;SDS011;1350;42.134;24.708;2022-10-22T04:42:27;29.80;;;19.92;;
2680;SDS011;1350;42.134;24.708;2022-10-22T04:44:53;35.90;;;22.92;;
2680;SDS011;1350;42.134;24.708;2022-10-22T04:47:22;29.85;;;20.05;;
2680;SDS011;1350;42.134;24.708;2022-10-22T04:49:48;32.88;;;22.20;;
2680;SDS011;1350;42.134;24.708;2022-10-22T04:52:15;30.38;;;20.52;;
2680;SDS011;1350;42.134;24.708;2022-10-22T04:54:42;35.03;;;22.98;;
2680;SDS011;1350;42.134;24.708;2022-10-22T04:57:09;36.97;;;23.30;;
2680;SDS011;1350;42.134;24.708;2022-10-22T04:59:35;35.58;;;22.90;;
2680;SDS011;1350;42.134;24.708;2022-10-22T05:02:02;31.55;;;22.92;;
2680;SDS011;1350;42.134;24.708;2022-10-22T05:04:31;33.22;;;22.17;;
2680;SDS011;1350;42.134;24.708;2022-10-22T05:06:57;30.75;;;20.17;;
2680;SDS011;1350;42.134;24.708;2022-10-22T05:09:24;36.70;;;22.05;;
2680;SDS011;1350;42.134;24.708;2022-10-22T05:11:51;37.60;;;20.90;;
2680;SDS011;1350;42.134;24.708;2022-10-22T05:14:19;37.05;;;21.83;;
2680;SDS011;1350;42.134;24.708;2022-10-22T05:16:46;28.08;;;20.10;;
2680;SDS011;1350;42.134;24.708;2022-10-22T05:19:14;33.08;;;20.20;;
2680;SDS011;1350;42.134;24.708;2022-10-22T05:21:44;53.20;;;20.75;;
2680;SDS011;1350;42.134;24.708;2022-10-22T05:24:12;32.30;;;19.88;;
2680;SDS011;1350;42.134;24.708;2022-10-22T05:26:38;30.50;;;20.73;;
2680;SDS011;1350;42.134;24.708;2022-10-22T05:29:05;33.13;;;17.70;;
2680;SDS011;1350;42.134;24.708;2022-10-22T05:31:32;48.97;;;21.55;;
2680;SDS011;1350;42.134;24.708;2022-10-22T05:33:59;27.73;;;18.17;;
2680;SDS011;1350;42.134;24.708;2022-10-22T05:36:26;32.35;;;18.33;;
2680;SDS011;1350;42.134;24.708;2022-10-22T05:38:55;25.20;;;16.10;;
2680;SDS011;1350;42.134;24.708;2022-10-22T05:41:23;30.20;;;18.13;;
2680;SDS011;1350;42.134;24.708;2022-10-22T05:43:52;23.88;;;18.92;;
2680;SDS011;1350;42.134;24.708;2022-10-22T05:46:21;24.45;;;17.05;;
2680;SDS011;1350;42.134;24.708;2022-10-22T05:48:49;24.67;;;15.60;;
2680;SDS011;1350;42.134;24.708;2022-10-22T05:51:16;26.92;;;17.33;;
2680;SDS011;1350;42.134;24.708;2022-10-22T05:53:44;24.13;;;15.73;;
2680;SDS011;1350;42.134;24.708;2022-10-22T05:56:13;28.52;;;15.10;;
2680;SDS011;1350;42.134;24.708;2022-10-22T05:58:41;20.55;;;13.98;;
2680;SDS011;1350;42.134;24.708;2022-10-22T06:01:10;22.23;;;14.20;;
2680;SDS011;1350;42.134;24.708;2022-10-22T06:03:39;27.92;;;15.63;;
2680;SDS011;1350;42.134;24.708;2022-10-22T06:06:11;27.95;;;14.43;;
2680;SDS011;1350;42.134;24.708;2022-10-22T06:08:43;25.20;;;15.25;;
2680;SDS011;1350;42.134;24.708;2022-10-22T06:11:11;19.50;;;14.13;;
2680;SDS011;1350;42.134;24.708;2022-10-22T06:13:39;19.67;;;13.80;;
2680;SDS011;1350;42.134;24.708;2022-10-22T06:16:06;19.30;;;14.30;;
2680;SDS011;1350;42.134;24.708;2022-10-22T06:18:32;20.03;;;14.50;;
2680;SDS011;1350;42.134;24.708;2022-10-22T06:21:02;37.37;;;14.30;;
2680;SDS011;1350;42.134;24.708;2022-10-22T06:23:31;26.23;;;13.97;;
2680;SDS011;1350;42.134;24.708;2022-10-22T06:25:57;25.33;;;13.93;;
2680;SDS011;1350;42.134;24.708;2022-10-22T06:28:26;25.47;;;15.80;;
2680;SDS011;1350;42.134;24.708;2022-10-22T06:30:53;19.10;;;13.27;;
2680;SDS011;1350;42.134;24.708;2022-10-22T06:33:22;31.13;;;14.07;;
2680;SDS011;1350;42.134;24.708;2022-10-22T06:35:48;23.70;;;14.63;;
2680;SDS011;1350;42.134;24.708;2022-10-22T06:38:15;16.90;;;12.30;;
2680;SDS011;1350;42.134;24.708;2022-10-22T06:40:42;17.83;;;13.10;;
2680;SDS011;1350;42.134;24.708;2022-10-22T06:43:09;17.33;;;11.93;;
2680;SDS011;1350;42.134;24.708;2022-10-22T06:45:37;21.07;;;13.50;;
2680;SDS011;1350;42.134;24.708;2022-10-22T06:48:04;19.27;;;11.77;;
2680;SDS011;1350;42.134;24.708;2022-10-22T06:50:32;18.07;;;12.80;;
2680;SDS011;1350;42.134;24.708;2022-10-22T06:52:59;20.83;;;13.53;;
2680;SDS011;1350;42.134;24.708;2022-10-22T06:55:26;29.20;;;14.17;;
2680;SDS011;1350;42.134;24.708;2022-10-22T06:57:53;23.00;;;14.63;;
2680;SDS011;1350;42.134;24.708;2022-10-22T07:00:20;18.17;;;13.80;;
2680;SDS011;1350;42.134;24.708;2022-10-22T07:02:50;21.93;;;15.07;;
2680;SDS011;1350;42.134;24.708;2022-10-22T07:05:18;18.83;;;13.77;;
2680;SDS011;1350;42.134;24.708;2022-10-22T07:07:45;20.60;;;13.80;;
2680;SDS011;1350;42.134;24.708;2022-10-22T07:10:11;24.60;;;15.20;;
2680;SDS011;1350;42.134;24.708;2022-10-22T07:12:38;19.73;;;13.30;;
2680;SDS011;1350;42.134;24.708;2022-10-22T07:15:05;18.60;;;14.03;;
2680;SDS011;1350;42.134;24.708;2022-10-22T07:17:33;25.23;;;14.30;;
2680;SDS011;1350;42.134;24.708;2022-10-22T07:20:01;17.40;;;13.73;;
2680;SDS011;1350;42.134;24.708;2022-10-22T07:22:28;18.20;;;12.40;;
2680;SDS011;1350;42.134;24.708;2022-10-22T07:24:55;19.57;;;12.37;;
2680;SDS011;1350;42.134;24.708;2022-10-22T07:27:22;14.80;;;11.33;;
2680;SDS011;1350;42.134;24.708;2022-10-22T07:29:48;20.97;;;12.20;;
2680;SDS011;1350;42.134;24.708;2022-10-22T07:32:15;19.80;;;12.77;;
2680;SDS011;1350;42.134;24.708;2022-10-22T07:34:42;23.80;;;11.60;;
2680;SDS011;1350;42.134;24.708;2022-10-22T07:37:10;16.10;;;11.43;;
2680;SDS011;1350;42.134;24.708;2022-10-22T07:39:37;22.20;;;12.90;;
2680;SDS011;1350;42.134;24.708;2022-10-22T07:42:04;21.90;;;11.57;;
2680;SDS011;1350;42.134;24.708;2022-10-22T07:44:31;19.60;;;13.13;;
2680;SDS011;1350;42.134;24.708;2022-10-22T07:46:58;21.17;;;12.80;;
2680;SDS011;1350;42.134;24.708;2022-10-22T07:49:24;16.97;;;12.87;;
2680;SDS011;1350;42.134;24.708;2022-10-22T07:51:51;18.20;;;11.40;;
2680;SDS011;1350;42.134;24.708;2022-10-22T07:54:19;26.83;;;12.73;;
2680;SDS011;1350;42.134;24.708;2022-10-22T07:56:46;25.23;;;11.73;;
2680;SDS011;1350;42.134;24.708;2022-10-22T07:59:13;16.80;;;10.30;;
2680;SDS011;1350;42.134;24.708;2022-10-22T08:01:40;16.47;;;10.80;;
2680;SDS011;1350;42.134;24.708;2022-10-22T08:04:07;20.00;;;10.63;;
2680;SDS011;1350;42.134;24.708;2022-10-22T08:06:35;14.30;;;11.13;;
2680;SDS011;1350;42.134;24.708;2022-10-22T08:09:02;19.10;;;10.97;;
2680;SDS011;1350;42.134;24.708;2022-10-22T08:11:38;17.40;;;11.87;;
2680;SDS011;1350;42.134;24.708;2022-10-22T08:14:05;13.03;;;10.40;;
2680;SDS011;1350;42.134;24.708;2022-10-22T08:16:31;16.77;;;11.80;;
2680;SDS011;1350;42.134;24.708;2022-10-22T08:18:58;18.53;;;11.87;;
2680;SDS011;1350;42.134;24.708;2022-10-22T08:21:25;17.70;;;10.60;;
2680;SDS011;1350;42.134;24.708;2022-10-22T08:23:52;14.80;;;10.03;;
2680;SDS011;1350;42.134;24.708;2022-10-22T08:26:19;21.10;;;11.40;;
2680;SDS011;1350;42.134;24.708;2022-10-22T08:28:47;13.67;;;10.67;;
2680;SDS011;1350;42.134;24.708;2022-10-22T08:31:14;12.77;;;10.50;;
2680;SDS011;1350;42.134;24.708;2022-10-22T08:33:41;17.57;;;10.17;;
2680;SDS011;1350;42.134;24.708;2022-10-22T08:36:08;26.93;;;12.17;;
2680;SDS011;1350;42.134;24.708;2022-10-22T08:38:35;20.70;;;11.10;;
2680;SDS011;1350;42.134;24.708;2022-10-22T08:41:05;16.57;;;10.23;;
2680;SDS011;1350;42.134;24.708;2022-10-22T08:43:40;17.23;;;9.50;;
2680;SDS011;1350;42.134;24.708;2022-10-22T08:46:23;15.67;;;9.47;;
2680;SDS011;1350;42.134;24.708;2022-10-22T08:49:00;20.93;;;9.57;;
2680;SDS011;1350;42.134;24.708;2022-10-22T08:51:30;13.10;;;9.53;;
2680;SDS011;1350;42.134;24.708;2022-10-22T08:54:04;14.80;;;8.93;;
2680;SDS011;1350;42.134;24.708;2022-10-22T08:56:41;22.70;;;9.73;;
2680;SDS011;1350;42.134;24.708;2022-10-22T08:59:13;20.13;;;11.43;;
2680;SDS011;1350;42.134;24.708;2022-10-22T09:01:44;17.17;;;11.47;;
2680;SDS011;1350;42.134;24.708;2022-10-22T09:04:15;13.60;;;8.83;;
2680;SDS011;1350;42.134;24.708;2022-10-22T09:06:49;21.77;;;13.00;;
2680;SDS011;1350;42.134;24.708;2022-10-22T09:09:17;34.60;;;12.47;;
2680;SDS011;1350;42.134;24.708;2022-10-22T09:11:47;13.23;;;8.93;;
2680;SDS011;1350;42.134;24.708;2022-10-22T09:14:17;13.70;;;9.53;;
2680;SDS011;1350;42.134;24.708;2022-10-22T09:16:54;15.63;;;9.70;;
2680;SDS011;1350;42.134;24.708;2022-10-22T09:19:39;11.43;;;8.27;;
2680;SDS011;1350;42.134;24.708;2022-10-22T09:22:14;15.27;;;10.03;;
2680;SDS011;1350;42.134;24.708;2022-10-22T09:24:53;22.20;;;11.93;;
2680;SDS011;1350;42.134;24.708;2022-10-22T09:27:25;10.80;;;8.13;;
2680;SDS011;1350;42.134;24.708;2022-10-22T09:29:55;16.03;;;8.93;;
2680;SDS011;1350;42.134;24.708;2022-10-22T09:32:22;19.63;;;10.13;;
2680;SDS011;1350;42.134;24.708;2022-10-22T09:34:53;20.87;;;9.23;;
2680;SDS011;1350;42.134;24.708;2022-10-22T09:37:24;14.50;;;8.97;;
2680;SDS011;1350;42.134;24.708;2022-10-22T09:39:52;14.40;;;9.10;;
2680;SDS011;1350;42.134;24.708;2022-10-22T09:42:20;19.37;;;10.30;;
2680;SDS011;1350;42.134;24.708;2022-10-22T09:44:50;16.10;;;9.60;;
2680;SDS011;1350;42.134;24.708;2022-10-22T09:47:27;13.03;;;9.03;;
2680;SDS011;1350;42.134;24.708;2022-10-22T09:50:09;20.37;;;9.50;;
2680;SDS011;1350;42.134;24.708;2022-10-22T09:52:45;15.07;;;10.40;;
2680;SDS011;1350;42.134;24.708;2022-10-22T09:55:20;16.30;;;9.07;;
2680;SDS011;1350;42.134;24.708;2022-10-22T09:57:51;15.57;;;9.43;;
2680;SDS011;1350;42.134;24.708;2022-10-22T10:00:19;24.00;;;10.13;;
2680;SDS011;1350;42.134;24.708;2022-10-22T10:02:52;19.13;;;9.90;;
2680;SDS011;1350;42.134;24.708;2022-10-22T10:05:23;24.63;;;11.30;;
2680;SDS011;1350;42.134;24.708;2022-10-22T10:07:51;16.20;;;9.80;;
2680;SDS011;1350;42.134;24.708;2022-10-22T10:10:19;18.70;;;10.27;;
2680;SDS011;1350;42.134;24.708;2022-10-22T10:12:54;15.23;;;9.87;;
2680;SDS011;1350;42.134;24.708;2022-10-22T10:15:27;13.43;;;8.80;;
2680;SDS011;1350;42.134;24.708;2022-10-22T10:18:04;15.03;;;11.10;;
2680;SDS011;1350;42.134;24.708;2022-10-22T10:20:43;21.00;;;12.37;;
2680;SDS011;1350;42.134;24.708;2022-10-22T10:23:17;12.93;;;10.37;;
2680;SDS011;1350;42.134;24.708;2022-10-22T10:25:51;12.37;;;10.73;;
2680;SDS011;1350;42.134;24.708;2022-10-22T10:28:28;15.03;;;9.37;;
2680;SDS011;1350;42.134;24.708;2022-10-22T10:31:10;17.70;;;11.30;;
2680;SDS011;1350;42.134;24.708;2022-10-22T10:33:48;22.27;;;11.77;;
2680;SDS011;1350;42.134;24.708;2022-10-22T10:36:25;16.93;;;11.10;;
2680;SDS011;1350;42.134;24.708;2022-10-22T10:38:56;19.70;;;12.07;;
2680;SDS011;1350;42.134;24.708;2022-10-22T10:41:31;15.43;;;11.87;;
2680;SDS011;1350;42.134;24.708;2022-10-22T10:44:23;16.20;;;10.87;;
2680;SDS011;1350;42.134;24.708;2022-10-22T10:47:04;15.03;;;10.90;;
2680;SDS011;1350;42.134;24.708;2022-10-22T10:49:42;14.13;;;12.17;;
2680;SDS011;1350;42.134;24.708;2022-10-22T10:52:11;19.83;;;13.00;;
2680;SDS011;1350;42.134;24.708;2022-10-22T10:54:43;22.50;;;12.67;;
2680;SDS011;1350;42.134;24.708;2022-10-22T10:57:19;19.40;;;13.30;;
2680;SDS011;1350;42.134;24.708;2022-10-22T11:00:00;16.67;;;12.70;;
2680;SDS011;1350;42.134;24.708;2022-10-22T11:05:46;14.97;;;12.80;;
2680;SDS011;1350;42.134;24.708;2022-10-22T11:08:18;20.37;;;12.60;;
2680;SDS011;1350;42.134;24.708;2022-10-22T11:10:49;15.50;;;11.37;;
2680;SDS011;1350;42.134;24.708;2022-10-22T11:13:21;17.17;;;11.70;;
2680;SDS011;1350;42.134;24.708;2022-10-22T11:15:55;19.70;;;13.90;;
2680;SDS011;1350;42.134;24.708;2022-10-22T11:18:28;15.33;;;11.50;;
2680;SDS011;1350;42.134;24.708;2022-10-22T11:21:06;18.83;;;12.50;;
2680;SDS011;1350;42.134;24.708;2022-10-22T11:23:40;15.00;;;11.70;;
2680;SDS011;1350;42.134;24.708;2022-10-22T11:26:12;14.57;;;10.90;;
2680;SDS011;1350;42.134;24.708;2022-10-22T11:28:52;17.90;;;11.57;;
2680;SDS011;1350;42.134;24.708;2022-10-22T11:31:24;21.27;;;10.83;;
2680;SDS011;1350;42.134;24.708;2022-10-22T11:33:52;23.20;;;11.07;;
2680;SDS011;1350;42.134;24.708;2022-10-22T11:36:24;16.73;;;11.77;;
2680;SDS011;1350;42.134;24.708;2022-10-22T11:38:53;12.73;;;10.60;;
2680;SDS011;1350;42.134;24.708;2022-10-22T11:41:22;14.37;;;10.30;;
2680;SDS011;1350;42.134;24.708;2022-10-22T11:43:56;17.20;;;10.63;;
2680;SDS011;1350;42.134;24.708;2022-10-22T11:46:26;17.43;;;10.90;;
2680;SDS011;1350;42.134;24.708;2022-10-22T11:49:02;20.17;;;10.47;;
2680;SDS011;1350;42.134;24.708;2022-10-22T11:51:33;16.63;;;9.30;;
2680;SDS011;1350;42.134;24.708;2022-10-22T11:54:07;14.07;;;10.23;;
2680;SDS011;1350;42.134;24.708;2022-10-22T11:56:56;17.37;;;9.77;;
2680;SDS011;1350;42.134;24.708;2022-10-22T11:59:39;17.27;;;10.27;;
2680;SDS011;1350;42.134;24.708;2022-10-22T12:08:20;12.37;;;9.30;;
2680;SDS011;1350;42.134;24.708;2022-10-22T12:10:57;20.23;;;10.70;;
2680;SDS011;1350;42.134;24.708;2022-10-22T12:13:31;18.80;;;9.60;;
2680;SDS011;1350;42.134;24.708;2022-10-22T12:16:13;12.63;;;9.60;;
2680;SDS011;1350;42.134;24.708;2022-10-22T12:18:40;17.70;;;10.03;;
2680;SDS011;1350;42.134;24.708;2022-10-22T12:21:10;17.10;;;10.33;;
2680;SDS011;1350;42.134;24.708;2022-10-22T12:23:40;15.23;;;10.70;;
2680;SDS011;1350;42.134;24.708;2022-10-22T12:26:20;21.90;;;9.97;;
2680;SDS011;1350;42.134;24.708;2022-10-22T12:28:48;15.03;;;9.73;;
2680;SDS011;1350;42.134;24.708;2022-10-22T12:31:15;12.20;;;9.73;;
2680;SDS011;1350;42.134;24.708;2022-10-22T12:33:42;10.13;;;8.40;;
2680;SDS011;1350;42.134;24.708;2022-10-22T12:36:13;14.50;;;9.17;;
2680;SDS011;1350;42.134;24.708;2022-10-22T12:38:45;17.17;;;9.37;;
2680;SDS011;1350;42.134;24.708;2022-10-22T12:41:12;14.70;;;10.03;;
2680;SDS011;1350;42.134;24.708;2022-10-22T12:43:39;12.80;;;10.00;;
2680;SDS011;1350;42.134;24.708;2022-10-22T12:46:08;14.90;;;9.30;;
2680;SDS011;1350;42.134;24.708;2022-10-22T12:48:39;15.27;;;9.07;;
2680;SDS011;1350;42.134;24.708;2022-10-22T12:51:07;12.87;;;8.03;;
2680;SDS011;1350;42.134;24.708;2022-10-22T12:53:41;12.10;;;8.57;;
2680;SDS011;1350;42.134;24.708;2022-10-22T12:56:13;19.83;;;9.40;;
2680;SDS011;1350;42.134;24.708;2022-10-22T12:58:41;13.23;;;8.10;;
2680;SDS011;1350;42.134;24.708;2022-10-22T13:01:11;18.20;;;9.67;;
2680;SDS011;1350;42.134;24.708;2022-10-22T13:03:41;15.13;;;7.40;;
2680;SDS011;1350;42.134;24.708;2022-10-22T13:06:13;19.20;;;13.70;;
2680;SDS011;1350;42.134;24.708;2022-10-22T13:09:04;76.27;;;49.67;;
2680;SDS011;1350;42.134;24.708;2022-10-22T13:11:37;40.87;;;32.37;;
2680;SDS011;1350;42.134;24.708;2022-10-22T13:14:13;41.83;;;30.73;;
2680;SDS011;1350;42.134;24.708;2022-10-22T13:19:38;14.47;;;10.10;;
2680;SDS011;1350;42.134;24.708;2022-10-22T13:22:23;14.57;;;9.43;;
2680;SDS011;1350;42.134;24.708;2022-10-22T13:24:53;15.00;;;9.33;;
2680;SDS011;1350;42.134;24.708;2022-10-22T13:27:23;15.40;;;9.80;;
2680;SDS011;1350;42.134;24.708;2022-10-22T13:29:50;19.13;;;9.03;;
2680;SDS011;1350;42.134;24.708;2022-10-22T13:32:20;20.00;;;9.93;;
2680;SDS011;1350;42.134;24.708;2022-10-22T13:34:54;20.67;;;11.40;;
2680;SDS011;1350;42.134;24.708;2022-10-22T13:37:23;16.57;;;10.10;;
2680;SDS011;1350;42.134;24.708;2022-10-22T13:39:50;15.50;;;10.23;;
2680;SDS011;1350;42.134;24.708;2022-10-22T13:42:18;17.63;;;10.60;;
2680;SDS011;1350;42.134;24.708;2022-10-22T13:44:45;14.47;;;10.83;;
2680;SDS011;1350;42.134;24.708;2022-10-22T13:47:22;14.50;;;10.33;;
2680;SDS011;1350;42.134;24.708;2022-10-22T13:49:52;15.13;;;9.37;;
2680;SDS011;1350;42.134;24.708;2022-10-22T13:52:27;12.70;;;9.70;;
2680;SDS011;1350;42.134;24.708;2022-10-22T13:54:59;15.90;;;9.70;;
2680;SDS011;1350;42.134;24.708;2022-10-22T13:57:27;37.30;;;11.77;;
2680;SDS011;1350;42.134;24.708;2022-10-22T13:59:54;21.10;;;10.17;;
2680;SDS011;1350;42.134;24.708;2022-10-22T14:02:21;15.30;;;10.50;;
2680;SDS011;1350;42.134;24.708;2022-10-22T14:04:48;26.47;;;12.13;;
2680;SDS011;1350;42.134;24.708;2022-10-22T14:07:16;14.27;;;9.47;;
2680;SDS011;1350;42.134;24.708;2022-10-22T14:09:43;14.77;;;11.20;;
2680;SDS011;1350;42.134;24.708;2022-10-22T14:12:11;18.93;;;9.93;;
2680;SDS011;1350;42.134;24.708;2022-10-22T14:14:41;19.90;;;11.63;;
2680;SDS011;1350;42.134;24.708;2022-10-22T14:17:10;19.53;;;11.33;;
2680;SDS011;1350;42.134;24.708;2022-10-22T14:19:43;24.93;;;12.47;;
2680;SDS011;1350;42.134;24.708;2022-10-22T14:22:15;21.00;;;12.23;;
2680;SDS011;1350;42.134;24.708;2022-10-22T14:24:43;32.97;;;18.30;;
2680;SDS011;1350;42.134;24.708;2022-10-22T14:27:10;38.80;;;22.37;;
2680;SDS011;1350;42.134;24.708;2022-10-22T14:29:38;23.17;;;13.43;;
2680;SDS011;1350;42.134;24.708;2022-10-22T14:32:08;21.80;;;11.80;;
2680;SDS011;1350;42.134;24.708;2022-10-22T14:34:38;25.17;;;14.07;;
2680;SDS011;1350;42.134;24.708;2022-10-22T14:37:07;18.87;;;11.40;;
2680;SDS011;1350;42.134;24.708;2022-10-22T14:39:41;30.40;;;14.67;;
2680;SDS011;1350;42.134;24.708;2022-10-22T14:42:10;31.47;;;16.47;;
2680;SDS011;1350;42.134;24.708;2022-10-22T14:44:38;61.47;;;19.03;;
2680;SDS011;1350;42.134;24.708;2022-10-22T14:47:04;26.23;;;15.30;;
2680;SDS011;1350;42.134;24.708;2022-10-22T14:49:33;31.20;;;19.97;;
2680;SDS011;1350;42.134;24.708;2022-10-22T14:51:59;29.30;;;15.37;;
2680;SDS011;1350;42.134;24.708;2022-10-22T14:54:26;21.17;;;13.57;;
2680;SDS011;1350;42.134;24.708;2022-10-22T14:56:53;30.50;;;14.47;;
2680;SDS011;1350;42.134;24.708;2022-10-22T14:59:20;20.50;;;13.40;;
2680;SDS011;1350;42.134;24.708;2022-10-22T15:01:47;16.90;;;10.70;;
2680;SDS011;1350;42.134;24.708;2022-10-22T15:04:15;17.57;;;12.47;;